sensor_id;sensor_type;location;lat;lon;timestamp;temperature;humidity
52415;DHT22;38340;52.964;6.086;2022-07-23T00:00:32;12.90;99.90
52415;DHT22;38340;52.964;6.086;2022-07-23T00:02:58;12.90;99.90
52415;DHT22;38340;52.964;6.086;2022-07-23T00:05:23;12.90;99.90
52415;DHT22;38340;52.964;6.086;2022-07-23T00:07:49;12.80;99.90
52415;DHT22;38340;52.964;6.086;2022-07-23T00:10:15;12.80;99.90
52415;DHT22;38340;52.964;6.086;2022-07-23T00:12:41;12.80;99.90
52415;DHT22;38340;52.964;6.086;2022-07-23T00:15:07;12.80;99.90
52415;DHT22;38340;52.964;6.086;2022-07-23T00:17:33;12.80;99.90
52415;DHT22;38340;52.964;6.086;2022-07-23T00:19:59;12.80;99.90
52415;DHT22;38340;52.964;6.086;2022-07-23T00:22:25;12.80;99.90
52415;DHT22;38340;52.964;6.086;2022-07-23T00:24:51;12.80;99.90
52415;DHT22;38340;52.964;6.086;2022-07-23T00:27:17;12.70;99.90
52415;DHT22;38340;52.964;6.086;2022-07-23T00:29:42;12.70;99.90
52415;DHT22;38340;52.964;6.086;2022-07-23T00:32:08;12.70;99.90
52415;DHT22;38340;52.964;6.086;2022-07-23T00:34:34;12.60;99.90
52415;DHT22;38340;52.964;6.086;2022-07-23T00:36:59;12.60;99.90
52415;DHT22;38340;52.964;6.086;2022-07-23T00:39:25;12.50;99.90
52415;DHT22;38340;52.964;6.086;2022-07-23T00:41:51;12.50;99.90
52415;DHT22;38340;52.964;6.086;2022-07-23T00:44:22;12.40;99.90
52415;DHT22;38340;52.964;6.086;2022-07-23T00:46:51;12.50;99.90
52415;DHT22;38340;52.964;6.086;2022-07-23T00:49:29;12.40;99.90
52415;DHT22;38340;52.964;6.086;2022-07-23T00:51:56;12.40;99.90
52415;DHT22;38340;52.964;6.086;2022-07-23T00:54:24;12.30;99.90
52415;DHT22;38340;52.964;6.086;2022-07-23T00:56:50;12.30;99.90
52415;DHT22;38340;52.964;6.086;2022-07-23T00:59:16;12.30;99.90
52415;DHT22;38340;52.964;6.086;2022-07-23T01:01:42;12.30;99.90
52415;DHT22;38340;52.964;6.086;2022-07-23T01:04:09;12.30;99.90
52415;DHT22;38340;52.964;6.086;2022-07-23T01:06:37;12.30;99.90
52415;DHT22;38340;52.964;6.086;2022-07-23T01:09:06;12.40;99.90
52415;DHT22;38340;52.964;6.086;2022-07-23T01:11:36;12.40;99.90
52415;DHT22;38340;52.964;6.086;2022-07-23T01:14:10;12.50;99.90
52415;DHT22;38340;52.964;6.086;2022-07-23T01:16:36;12.60;99.90
52415;DHT22;38340;52.964;6.086;2022-07-23T01:19:02;12.60;99.90
52415;DHT22;38340;52.964;6.086;2022-07-23T01:21:33;12.60;99.90
52415;DHT22;38340;52.964;6.086;2022-07-23T01:24:00;12.60;99.90
52415;DHT22;38340;52.964;6.086;2022-07-23T01:26:25;12.60;99.90
52415;DHT22;38340;52.964;6.086;2022-07-23T01:28:51;12.50;99.90
52415;DHT22;38340;52.964;6.086;2022-07-23T01:31:17;12.50;99.90
52415;DHT22;38340;52.964;6.086;2022-07-23T01:33:44;12.40;99.90
52415;DHT22;38340;52.964;6.086;2022-07-23T01:36:10;12.50;99.90
52415;DHT22;38340;52.964;6.086;2022-07-23T01:38:36;12.50;99.90
52415;DHT22;38340;52.964;6.086;2022-07-23T01:41:02;12.40;99.90
52415;DHT22;38340;52.964;6.086;2022-07-23T01:43:27;12.40;99.90
52415;DHT22;38340;52.964;6.086;2022-07-23T01:45:53;12.30;99.90
52415;DHT22;38340;52.964;6.086;2022-07-23T01:48:19;12.30;99.90
52415;DHT22;38340;52.964;6.086;2022-07-23T01:50:46;12.30;99.90
52415;DHT22;38340;52.964;6.086;2022-07-23T01:53:13;12.30;99.90
52415;DHT22;38340;52.964;6.086;2022-07-23T01:55:38;12.30;99.90
52415;DHT22;38340;52.964;6.086;2022-07-23T01:58:04;12.30;99.90
52415;DHT22;38340;52.964;6.086;2022-07-23T02:00:31;12.30;99.90
52415;DHT22;38340;52.964;6.086;2022-07-23T02:02:57;12.30;99.90
52415;DHT22;38340;52.964;6.086;2022-07-23T02:05:24;12.30;99.90
52415;DHT22;38340;52.964;6.086;2022-07-23T02:07:50;12.20;99.90
52415;DHT22;38340;52.964;6.086;2022-07-23T02:10:16;12.10;99.90
52415;DHT22;38340;52.964;6.086;2022-07-23T02:12:42;12.10;99.90
52415;DHT22;38340;52.964;6.086;2022-07-23T02:15:08;12.00;99.90
52415;DHT22;38340;52.964;6.086;2022-07-23T02:17:34;11.90;99.90
52415;DHT22;38340;52.964;6.086;2022-07-23T02:19:59;11.90;99.90
52415;DHT22;38340;52.964;6.086;2022-07-23T02:22:25;11.90;99.90
52415;DHT22;38340;52.964;6.086;2022-07-23T02:24:51;11.70;99.90
52415;DHT22;38340;52.964;6.086;2022-07-23T02:27:16;11.60;99.90
52415;DHT22;38340;52.964;6.086;2022-07-23T02:29:42;11.60;99.90
52415;DHT22;38340;52.964;6.086;2022-07-23T02:32:08;11.50;99.90
52415;DHT22;38340;52.964;6.086;2022-07-23T02:34:33;11.50;99.90
52415;DHT22;38340;52.964;6.086;2022-07-23T02:36:59;11.50;99.90
52415;DHT22;38340;52.964;6.086;2022-07-23T02:39:25;11.40;99.90
52415;DHT22;38340;52.964;6.086;2022-07-23T02:41:50;11.40;99.90
52415;DHT22;38340;52.964;6.086;2022-07-23T02:44:16;11.30;99.90
52415;DHT22;38340;52.964;6.086;2022-07-23T02:46:42;11.30;99.90
52415;DHT22;38340;52.964;6.086;2022-07-23T02:49:07;11.20;99.90
52415;DHT22;38340;52.964;6.086;2022-07-23T02:51:33;11.20;99.90
52415;DHT22;38340;52.964;6.086;2022-07-23T02:53:59;11.20;99.90
52415;DHT22;38340;52.964;6.086;2022-07-23T02:56:25;11.20;99.90
52415;DHT22;38340;52.964;6.086;2022-07-23T02:58:50;11.10;99.90
52415;DHT22;38340;52.964;6.086;2022-07-23T03:01:16;11.10;99.90
52415;DHT22;38340;52.964;6.086;2022-07-23T03:03:42;11.00;99.90
52415;DHT22;38340;52.964;6.086;2022-07-23T03:06:07;11.00;99.90
52415;DHT22;38340;52.964;6.086;2022-07-23T03:08:33;11.00;99.90
52415;DHT22;38340;52.964;6.086;2022-07-23T03:10:59;11.00;99.90
52415;DHT22;38340;52.964;6.086;2022-07-23T03:13:24;10.90;99.90
52415;DHT22;38340;52.964;6.086;2022-07-23T03:15:50;10.90;99.90
52415;DHT22;38340;52.964;6.086;2022-07-23T03:18:16;10.90;99.90
52415;DHT22;38340;52.964;6.086;2022-07-23T03:20:42;10.90;99.90
52415;DHT22;38340;52.964;6.086;2022-07-23T03:23:08;10.80;99.90
52415;DHT22;38340;52.964;6.086;2022-07-23T03:25:33;10.80;99.90
52415;DHT22;38340;52.964;6.086;2022-07-23T03:27:59;10.80;99.90
52415;DHT22;38340;52.964;6.086;2022-07-23T03:30:25;10.80;99.90
52415;DHT22;38340;52.964;6.086;2022-07-23T03:32:51;10.90;99.90
52415;DHT22;38340;52.964;6.086;2022-07-23T03:35:16;10.90;99.90
52415;DHT22;38340;52.964;6.086;2022-07-23T03:37:42;10.90;99.90
52415;DHT22;38340;52.964;6.086;2022-07-23T03:40:08;10.90;99.90
52415;DHT22;38340;52.964;6.086;2022-07-23T03:42:33;10.90;99.90
52415;DHT22;38340;52.964;6.086;2022-07-23T03:44:59;10.90;99.90
52415;DHT22;38340;52.964;6.086;2022-07-23T03:47:26;10.90;99.90
52415;DHT22;38340;52.964;6.086;2022-07-23T03:49:51;10.90;99.90
52415;DHT22;38340;52.964;6.086;2022-07-23T03:52:17;10.90;99.90
52415;DHT22;38340;52.964;6.086;2022-07-23T03:54:43;10.90;99.90
52415;DHT22;38340;52.964;6.086;2022-07-23T03:57:08;10.90;99.90
52415;DHT22;38340;52.964;6.086;2022-07-23T03:59:34;10.90;99.90
52415;DHT22;38340;52.964;6.086;2022-07-23T04:02:00;11.00;99.90
52415;DHT22;38340;52.964;6.086;2022-07-23T04:04:25;11.00;99.90
52415;DHT22;38340;52.964;6.086;2022-07-23T04:06:51;10.90;99.90
52415;DHT22;38340;52.964;6.086;2022-07-23T04:09:16;11.00;99.90
52415;DHT22;38340;52.964;6.086;2022-07-23T04:11:42;11.00;99.90
52415;DHT22;38340;52.964;6.086;2022-07-23T04:14:08;11.10;99.90
52415;DHT22;38340;52.964;6.086;2022-07-23T04:16:33;11.20;99.90
52415;DHT22;38340;52.964;6.086;2022-07-23T04:18:59;11.30;99.90
52415;DHT22;38340;52.964;6.086;2022-07-23T04:21:25;11.40;99.90
52415;DHT22;38340;52.964;6.086;2022-07-23T04:23:50;11.50;99.90
52415;DHT22;38340;52.964;6.086;2022-07-23T04:26:16;11.60;99.90
52415;DHT22;38340;52.964;6.086;2022-07-23T04:28:42;11.60;99.90
52415;DHT22;38340;52.964;6.086;2022-07-23T04:31:08;11.70;99.90
52415;DHT22;38340;52.964;6.086;2022-07-23T04:33:34;11.80;99.90
52415;DHT22;38340;52.964;6.086;2022-07-23T04:35:59;12.40;99.90
52415;DHT22;38340;52.964;6.086;2022-07-23T04:38:25;13.20;99.90
52415;DHT22;38340;52.964;6.086;2022-07-23T04:40:50;13.70;99.90
52415;DHT22;38340;52.964;6.086;2022-07-23T04:43:16;14.30;99.90
52415;DHT22;38340;52.964;6.086;2022-07-23T04:45:42;14.80;99.90
52415;DHT22;38340;52.964;6.086;2022-07-23T04:48:07;15.30;99.90
52415;DHT22;38340;52.964;6.086;2022-07-23T04:50:33;15.70;99.90
52415;DHT22;38340;52.964;6.086;2022-07-23T04:52:59;16.20;99.90
52415;DHT22;38340;52.964;6.086;2022-07-23T04:55:25;16.60;99.90
52415;DHT22;38340;52.964;6.086;2022-07-23T04:57:50;16.80;99.90
52415;DHT22;38340;52.964;6.086;2022-07-23T05:00:16;16.70;99.90
52415;DHT22;38340;52.964;6.086;2022-07-23T05:02:42;17.00;99.90
52415;DHT22;38340;52.964;6.086;2022-07-23T05:05:07;17.30;99.90
52415;DHT22;38340;52.964;6.086;2022-07-23T05:07:33;17.50;99.90
52415;DHT22;38340;52.964;6.086;2022-07-23T05:09:59;17.80;99.90
52415;DHT22;38340;52.964;6.086;2022-07-23T05:12:24;18.20;99.90
52415;DHT22;38340;52.964;6.086;2022-07-23T05:14:50;18.40;99.90
52415;DHT22;38340;52.964;6.086;2022-07-23T05:17:17;18.60;99.90
52415;DHT22;38340;52.964;6.086;2022-07-23T05:19:42;18.70;99.90
52415;DHT22;38340;52.964;6.086;2022-07-23T05:22:08;18.80;99.90
52415;DHT22;38340;52.964;6.086;2022-07-23T05:24:33;18.80;99.90
52415;DHT22;38340;52.964;6.086;2022-07-23T05:26:59;19.00;99.90
52415;DHT22;38340;52.964;6.086;2022-07-23T05:29:25;18.80;99.90
52415;DHT22;38340;52.964;6.086;2022-07-23T05:31:50;18.60;99.90
52415;DHT22;38340;52.964;6.086;2022-07-23T05:34:16;18.50;99.90
52415;DHT22;38340;52.964;6.086;2022-07-23T05:36:42;18.40;99.90
52415;DHT22;38340;52.964;6.086;2022-07-23T05:39:07;18.20;99.90
52415;DHT22;38340;52.964;6.086;2022-07-23T05:41:33;18.10;99.90
52415;DHT22;38340;52.964;6.086;2022-07-23T05:43:59;18.10;99.90
52415;DHT22;38340;52.964;6.086;2022-07-23T05:46:24;18.00;99.90
52415;DHT22;38340;52.964;6.086;2022-07-23T05:48:50;17.90;99.90
52415;DHT22;38340;52.964;6.086;2022-07-23T05:51:23;17.70;99.90
52415;DHT22;38340;52.964;6.086;2022-07-23T05:53:50;17.60;99.90
52415;DHT22;38340;52.964;6.086;2022-07-23T05:56:16;17.40;99.90
52415;DHT22;38340;52.964;6.086;2022-07-23T05:58:42;17.30;99.90
52415;DHT22;38340;52.964;6.086;2022-07-23T06:01:08;17.20;99.90
52415;DHT22;38340;52.964;6.086;2022-07-23T06:03:34;17.10;99.90
52415;DHT22;38340;52.964;6.086;2022-07-23T06:05:59;16.90;99.90
52415;DHT22;38340;52.964;6.086;2022-07-23T06:08:25;17.00;99.90
52415;DHT22;38340;52.964;6.086;2022-07-23T06:10:51;16.90;99.90
52415;DHT22;38340;52.964;6.086;2022-07-23T06:13:18;16.90;99.90
52415;DHT22;38340;52.964;6.086;2022-07-23T06:15:44;16.90;99.90
52415;DHT22;38340;52.964;6.086;2022-07-23T06:18:09;16.90;99.90
52415;DHT22;38340;52.964;6.086;2022-07-23T06:20:35;16.80;99.90
52415;DHT22;38340;52.964;6.086;2022-07-23T06:23:01;17.00;99.90
52415;DHT22;38340;52.964;6.086;2022-07-23T06:25:26;16.90;99.90
52415;DHT22;38340;52.964;6.086;2022-07-23T06:27:52;17.00;99.90
52415;DHT22;38340;52.964;6.086;2022-07-23T06:30:18;17.10;99.90
52415;DHT22;38340;52.964;6.086;2022-07-23T06:32:45;17.10;99.90
52415;DHT22;38340;52.964;6.086;2022-07-23T06:35:11;17.20;99.90
52415;DHT22;38340;52.964;6.086;2022-07-23T06:37:37;17.20;99.90
52415;DHT22;38340;52.964;6.086;2022-07-23T06:40:03;17.20;99.90
52415;DHT22;38340;52.964;6.086;2022-07-23T06:42:29;17.30;99.90
52415;DHT22;38340;52.964;6.086;2022-07-23T06:44:54;17.40;99.90
52415;DHT22;38340;52.964;6.086;2022-07-23T06:47:20;17.30;99.90
52415;DHT22;38340;52.964;6.086;2022-07-23T06:49:45;17.30;99.90
52415;DHT22;38340;52.964;6.086;2022-07-23T06:52:11;17.40;99.90
52415;DHT22;38340;52.964;6.086;2022-07-23T06:54:37;17.40;99.90
52415;DHT22;38340;52.964;6.086;2022-07-23T06:57:03;17.40;99.90
52415;DHT22;38340;52.964;6.086;2022-07-23T06:59:28;17.50;99.90
52415;DHT22;38340;52.964;6.086;2022-07-23T07:01:54;17.60;99.90
52415;DHT22;38340;52.964;6.086;2022-07-23T07:04:20;17.50;99.90
52415;DHT22;38340;52.964;6.086;2022-07-23T07:06:45;17.60;99.90
52415;DHT22;38340;52.964;6.086;2022-07-23T07:09:11;17.60;99.90
52415;DHT22;38340;52.964;6.086;2022-07-23T07:11:37;17.80;99.90
52415;DHT22;38340;52.964;6.086;2022-07-23T07:14:02;17.80;99.90
52415;DHT22;38340;52.964;6.086;2022-07-23T07:16:29;17.80;99.90
52415;DHT22;38340;52.964;6.086;2022-07-23T07:18:55;17.80;99.90
52415;DHT22;38340;52.964;6.086;2022-07-23T07:21:21;18.00;99.90
52415;DHT22;38340;52.964;6.086;2022-07-23T07:23:47;18.00;99.90
52415;DHT22;38340;52.964;6.086;2022-07-23T07:26:12;18.10;99.90
52415;DHT22;38340;52.964;6.086;2022-07-23T07:28:38;17.90;99.90
52415;DHT22;38340;52.964;6.086;2022-07-23T07:31:04;17.80;99.90
52415;DHT22;38340;52.964;6.086;2022-07-23T07:33:29;17.90;99.90
52415;DHT22;38340;52.964;6.086;2022-07-23T07:35:55;18.00;99.90
52415;DHT22;38340;52.964;6.086;2022-07-23T07:38:21;18.10;99.90
52415;DHT22;38340;52.964;6.086;2022-07-23T07:40:47;18.30;99.90
52415;DHT22;38340;52.964;6.086;2022-07-23T07:43:12;18.40;99.90
52415;DHT22;38340;52.964;6.086;2022-07-23T07:45:38;18.50;99.90
52415;DHT22;38340;52.964;6.086;2022-07-23T07:48:04;18.40;99.90
52415;DHT22;38340;52.964;6.086;2022-07-23T07:50:30;18.50;99.90
52415;DHT22;38340;52.964;6.086;2022-07-23T07:52:56;18.70;99.90
52415;DHT22;38340;52.964;6.086;2022-07-23T07:55:21;18.80;99.90
52415;DHT22;38340;52.964;6.086;2022-07-23T07:57:47;19.10;99.90
52415;DHT22;38340;52.964;6.086;2022-07-23T08:00:13;19.30;99.90
52415;DHT22;38340;52.964;6.086;2022-07-23T08:02:46;19.40;99.90
52415;DHT22;38340;52.964;6.086;2022-07-23T08:05:13;19.40;99.90
52415;DHT22;38340;52.964;6.086;2022-07-23T08:07:40;19.50;99.90
52415;DHT22;38340;52.964;6.086;2022-07-23T08:10:07;19.60;99.90
52415;DHT22;38340;52.964;6.086;2022-07-23T08:12:44;19.60;99.90
52415;DHT22;38340;52.964;6.086;2022-07-23T08:15:12;19.70;99.90
52415;DHT22;38340;52.964;6.086;2022-07-23T08:17:38;19.50;99.90
52415;DHT22;38340;52.964;6.086;2022-07-23T08:20:05;19.60;99.90
52415;DHT22;38340;52.964;6.086;2022-07-23T08:22:45;19.50;99.90
52415;DHT22;38340;52.964;6.086;2022-07-23T08:25:11;19.50;99.90
52415;DHT22;38340;52.964;6.086;2022-07-23T08:27:37;19.50;99.90
52415;DHT22;38340;52.964;6.086;2022-07-23T08:30:03;19.60;99.90
52415;DHT22;38340;52.964;6.086;2022-07-23T08:32:29;19.60;99.90
52415;DHT22;38340;52.964;6.086;2022-07-23T08:34:55;19.50;99.90
52415;DHT22;38340;52.964;6.086;2022-07-23T08:37:20;19.30;99.90
52415;DHT22;38340;52.964;6.086;2022-07-23T08:39:46;19.20;99.90
52415;DHT22;38340;52.964;6.086;2022-07-23T08:42:13;19.30;99.90
52415;DHT22;38340;52.964;6.086;2022-07-23T08:44:44;19.40;99.90
52415;DHT22;38340;52.964;6.086;2022-07-23T08:47:11;19.40;99.90
52415;DHT22;38340;52.964;6.086;2022-07-23T08:49:37;19.40;99.90
52415;DHT22;38340;52.964;6.086;2022-07-23T08:52:04;19.20;99.90
52415;DHT22;38340;52.964;6.086;2022-07-23T08:54:31;19.20;99.90
52415;DHT22;38340;52.964;6.086;2022-07-23T08:56:56;19.20;99.90
52415;DHT22;38340;52.964;6.086;2022-07-23T08:59:22;19.20;99.90
52415;DHT22;38340;52.964;6.086;2022-07-23T09:01:48;19.30;99.90
52415;DHT22;38340;52.964;6.086;2022-07-23T09:04:14;19.20;99.90
52415;DHT22;38340;52.964;6.086;2022-07-23T09:06:39;19.40;99.90
52415;DHT22;38340;52.964;6.086;2022-07-23T09:09:18;19.40;99.90
52415;DHT22;38340;52.964;6.086;2022-07-23T09:11:48;19.60;99.90
52415;DHT22;38340;52.964;6.086;2022-07-23T09:14:44;19.70;99.90
52415;DHT22;38340;52.964;6.086;2022-07-23T09:17:13;20.00;99.90
52415;DHT22;38340;52.964;6.086;2022-07-23T09:19:39;19.90;99.90
52415;DHT22;38340;52.964;6.086;2022-07-23T09:22:25;20.10;99.90
52415;DHT22;38340;52.964;6.086;2022-07-23T09:25:08;20.10;99.90
52415;DHT22;38340;52.964;6.086;2022-07-23T09:27:57;20.30;99.90
52415;DHT22;38340;52.964;6.086;2022-07-23T09:30:27;20.40;99.90
52415;DHT22;38340;52.964;6.086;2022-07-23T09:33:11;20.40;99.90
52415;DHT22;38340;52.964;6.086;2022-07-23T09:35:50;20.60;99.90
52415;DHT22;38340;52.964;6.086;2022-07-23T09:38:17;20.70;99.90
52415;DHT22;38340;52.964;6.086;2022-07-23T09:40:44;20.50;99.90
52415;DHT22;38340;52.964;6.086;2022-07-23T09:43:11;20.50;99.90
52415;DHT22;38340;52.964;6.086;2022-07-23T09:45:36;20.10;99.90
52415;DHT22;38340;52.964;6.086;2022-07-23T09:48:15;20.10;99.90
52415;DHT22;38340;52.964;6.086;2022-07-23T09:50:42;20.10;99.90
52415;DHT22;38340;52.964;6.086;2022-07-23T09:53:10;20.10;99.90
52415;DHT22;38340;52.964;6.086;2022-07-23T09:55:48;20.20;99.90
52415;DHT22;38340;52.964;6.086;2022-07-23T09:58:14;20.10;99.90
52415;DHT22;38340;52.964;6.086;2022-07-23T10:00:42;20.00;99.90
52415;DHT22;38340;52.964;6.086;2022-07-23T10:03:11;20.00;99.90
52415;DHT22;38340;52.964;6.086;2022-07-23T10:05:37;19.90;99.90
52415;DHT22;38340;52.964;6.086;2022-07-23T10:08:04;19.80;99.90
52415;DHT22;38340;52.964;6.086;2022-07-23T10:10:33;19.90;99.90
52415;DHT22;38340;52.964;6.086;2022-07-23T10:12:59;20.20;99.90
52415;DHT22;38340;52.964;6.086;2022-07-23T10:15:40;20.60;99.90
52415;DHT22;38340;52.964;6.086;2022-07-23T10:18:06;21.00;99.90
52415;DHT22;38340;52.964;6.086;2022-07-23T10:20:32;21.20;99.90
52415;DHT22;38340;52.964;6.086;2022-07-23T10:26:21;21.00;99.90
52415;DHT22;38340;52.964;6.086;2022-07-23T10:29:10;20.90;99.90
52415;DHT22;38340;52.964;6.086;2022-07-23T10:36:58;20.70;99.90
52415;DHT22;38340;52.964;6.086;2022-07-23T10:39:31;21.00;99.90
52415;DHT22;38340;52.964;6.086;2022-07-23T10:44:53;20.60;99.90
52415;DHT22;38340;52.964;6.086;2022-07-23T10:47:29;20.80;99.90
52415;DHT22;38340;52.964;6.086;2022-07-23T10:50:27;20.70;99.90
52415;DHT22;38340;52.964;6.086;2022-07-23T10:53:14;20.60;99.90
52415;DHT22;38340;52.964;6.086;2022-07-23T10:55:49;20.90;99.90
52415;DHT22;38340;52.964;6.086;2022-07-23T10:58:48;21.20;99.90
52415;DHT22;38340;52.964;6.086;2022-07-23T11:01:36;21.40;99.90
52415;DHT22;38340;52.964;6.086;2022-07-23T11:04:03;21.40;99.90
52415;DHT22;38340;52.964;6.086;2022-07-23T11:15:08;21.10;99.90
52415;DHT22;38340;52.964;6.086;2022-07-23T11:25:11;21.40;99.90
52415;DHT22;38340;52.964;6.086;2022-07-23T11:30:03;22.00;99.90
52415;DHT22;38340;52.964;6.086;2022-07-23T11:32:35;22.00;99.90
52415;DHT22;38340;52.964;6.086;2022-07-23T11:35:21;22.00;99.90
52415;DHT22;38340;52.964;6.086;2022-07-23T11:37:48;22.10;99.90
52415;DHT22;38340;52.964;6.086;2022-07-23T11:40:15;21.90;99.90
52415;DHT22;38340;52.964;6.086;2022-07-23T11:43:02;22.00;99.90
52415;DHT22;38340;52.964;6.086;2022-07-23T11:45:40;22.00;99.90
52415;DHT22;38340;52.964;6.086;2022-07-23T11:48:08;21.90;99.90
52415;DHT22;38340;52.964;6.086;2022-07-23T11:50:35;21.40;99.90
52415;DHT22;38340;52.964;6.086;2022-07-23T11:53:02;21.40;99.90
52415;DHT22;38340;52.964;6.086;2022-07-23T11:55:28;21.20;99.90
52415;DHT22;38340;52.964;6.086;2022-07-23T11:57:54;21.20;99.90
52415;DHT22;38340;52.964;6.086;2022-07-23T12:00:22;21.30;99.90
52415;DHT22;38340;52.964;6.086;2022-07-23T12:02:51;21.30;99.90
52415;DHT22;38340;52.964;6.086;2022-07-23T12:05:26;21.30;99.90
52415;DHT22;38340;52.964;6.086;2022-07-23T12:07:53;21.40;99.90
52415;DHT22;38340;52.964;6.086;2022-07-23T12:10:42;21.50;99.90
52415;DHT22;38340;52.964;6.086;2022-07-23T12:13:12;21.70;99.90
52415;DHT22;38340;52.964;6.086;2022-07-23T12:15:40;22.00;99.90
52415;DHT22;38340;52.964;6.086;2022-07-23T12:18:08;22.00;99.90
52415;DHT22;38340;52.964;6.086;2022-07-23T12:20:43;22.10;99.90
52415;DHT22;38340;52.964;6.086;2022-07-23T12:23:10;22.40;99.90
52415;DHT22;38340;52.964;6.086;2022-07-23T12:25:38;22.70;99.90
52415;DHT22;38340;52.964;6.086;2022-07-23T12:28:10;22.80;99.90
52415;DHT22;38340;52.964;6.086;2022-07-23T12:33:13;22.90;99.90
52415;DHT22;38340;52.964;6.086;2022-07-23T12:35:42;23.10;99.90
52415;DHT22;38340;52.964;6.086;2022-07-23T12:38:12;23.20;99.90
52415;DHT22;38340;52.964;6.086;2022-07-23T12:43:12;23.20;99.90
52415;DHT22;38340;52.964;6.086;2022-07-23T12:46:03;23.20;99.90
52415;DHT22;38340;52.964;6.086;2022-07-23T12:48:34;23.10;99.90
52415;DHT22;38340;52.964;6.086;2022-07-23T12:53:31;23.00;99.90
52415;DHT22;38340;52.964;6.086;2022-07-23T12:56:21;22.80;99.90
52415;DHT22;38340;52.964;6.086;2022-07-23T12:59:12;22.60;99.90
52415;DHT22;38340;52.964;6.086;2022-07-23T13:01:43;22.50;99.90
52415;DHT22;38340;52.964;6.086;2022-07-23T13:04:12;22.50;99.90
52415;DHT22;38340;52.964;6.086;2022-07-23T13:06:41;22.70;99.90
52415;DHT22;38340;52.964;6.086;2022-07-23T13:09:09;22.80;99.90
52415;DHT22;38340;52.964;6.086;2022-07-23T13:11:35;22.90;99.90
52415;DHT22;38340;52.964;6.086;2022-07-23T13:14:02;22.80;99.90
52415;DHT22;38340;52.964;6.086;2022-07-23T13:16:29;22.70;99.90
52415;DHT22;38340;52.964;6.086;2022-07-23T13:18:55;22.60;99.90
52415;DHT22;38340;52.964;6.086;2022-07-23T13:21:22;22.40;99.90
52415;DHT22;38340;52.964;6.086;2022-07-23T13:23:48;22.50;99.90
52415;DHT22;38340;52.964;6.086;2022-07-23T13:26:14;22.30;99.90
52415;DHT22;38340;52.964;6.086;2022-07-23T13:28:40;22.30;99.90
52415;DHT22;38340;52.964;6.086;2022-07-23T13:31:05;22.20;99.90
52415;DHT22;38340;52.964;6.086;2022-07-23T13:33:31;22.20;99.90
52415;DHT22;38340;52.964;6.086;2022-07-23T13:35:57;22.10;99.90
52415;DHT22;38340;52.964;6.086;2022-07-23T13:38:23;22.20;99.90
52415;DHT22;38340;52.964;6.086;2022-07-23T13:40:52;22.20;99.90
52415;DHT22;38340;52.964;6.086;2022-07-23T13:43:21;22.30;99.90
52415;DHT22;38340;52.964;6.086;2022-07-23T13:45:47;22.30;99.90
52415;DHT22;38340;52.964;6.086;2022-07-23T13:48:13;22.40;99.90
52415;DHT22;38340;52.964;6.086;2022-07-23T13:50:40;22.50;99.90
52415;DHT22;38340;52.964;6.086;2022-07-23T13:53:10;22.50;99.90
52415;DHT22;38340;52.964;6.086;2022-07-23T13:55:37;22.50;99.90
52415;DHT22;38340;52.964;6.086;2022-07-23T13:58:03;22.40;99.90
52415;DHT22;38340;52.964;6.086;2022-07-23T14:00:30;22.40;99.90
52415;DHT22;38340;52.964;6.086;2022-07-23T14:02:57;22.60;99.90
52415;DHT22;38340;52.964;6.086;2022-07-23T14:05:23;22.80;99.90
52415;DHT22;38340;52.964;6.086;2022-07-23T14:07:49;23.00;99.90
52415;DHT22;38340;52.964;6.086;2022-07-23T14:10:16;22.60;99.90
52415;DHT22;38340;52.964;6.086;2022-07-23T14:12:44;22.30;99.90
52415;DHT22;38340;52.964;6.086;2022-07-23T14:15:10;22.30;99.90
52415;DHT22;38340;52.964;6.086;2022-07-23T14:17:37;22.30;99.90
52415;DHT22;38340;52.964;6.086;2022-07-23T14:20:04;22.30;99.90
52415;DHT22;38340;52.964;6.086;2022-07-23T14:22:30;22.40;99.90
52415;DHT22;38340;52.964;6.086;2022-07-23T14:24:56;22.40;99.90
52415;DHT22;38340;52.964;6.086;2022-07-23T14:27:24;22.50;99.90
52415;DHT22;38340;52.964;6.086;2022-07-23T14:29:51;22.50;99.90
52415;DHT22;38340;52.964;6.086;2022-07-23T14:32:17;22.50;99.90
52415;DHT22;38340;52.964;6.086;2022-07-23T14:34:43;22.50;99.90
52415;DHT22;38340;52.964;6.086;2022-07-23T14:37:10;22.60;99.90
52415;DHT22;38340;52.964;6.086;2022-07-23T14:39:37;22.80;99.90
52415;DHT22;38340;52.964;6.086;2022-07-23T14:42:04;22.90;99.90
52415;DHT22;38340;52.964;6.086;2022-07-23T14:44:30;22.90;99.90
52415;DHT22;38340;52.964;6.086;2022-07-23T14:46:55;22.80;99.90
52415;DHT22;38340;52.964;6.086;2022-07-23T14:49:21;22.70;99.90
52415;DHT22;38340;52.964;6.086;2022-07-23T14:51:47;22.70;99.90
52415;DHT22;38340;52.964;6.086;2022-07-23T14:54:13;22.60;99.90
52415;DHT22;38340;52.964;6.086;2022-07-23T14:56:40;22.60;99.90
52415;DHT22;38340;52.964;6.086;2022-07-23T14:59:06;22.60;99.90
52415;DHT22;38340;52.964;6.086;2022-07-23T15:01:32;22.70;99.90
52415;DHT22;38340;52.964;6.086;2022-07-23T15:03:58;22.70;99.90
52415;DHT22;38340;52.964;6.086;2022-07-23T15:06:24;22.70;99.90
52415;DHT22;38340;52.964;6.086;2022-07-23T15:08:50;22.80;99.90
52415;DHT22;38340;52.964;6.086;2022-07-23T15:11:16;23.00;99.90
52415;DHT22;38340;52.964;6.086;2022-07-23T15:13:42;23.10;99.90
52415;DHT22;38340;52.964;6.086;2022-07-23T15:16:08;23.30;99.90
52415;DHT22;38340;52.964;6.086;2022-07-23T15:18:34;23.40;99.90
52415;DHT22;38340;52.964;6.086;2022-07-23T15:21:01;23.60;99.90
52415;DHT22;38340;52.964;6.086;2022-07-23T15:23:27;23.60;99.90
52415;DHT22;38340;52.964;6.086;2022-07-23T15:25:56;23.60;99.90
52415;DHT22;38340;52.964;6.086;2022-07-23T15:28:22;23.80;99.90
52415;DHT22;38340;52.964;6.086;2022-07-23T15:30:49;23.80;99.90
52415;DHT22;38340;52.964;6.086;2022-07-23T15:33:15;23.80;99.90
52415;DHT22;38340;52.964;6.086;2022-07-23T15:35:41;23.70;99.90
52415;DHT22;38340;52.964;6.086;2022-07-23T15:38:06;23.80;99.90
52415;DHT22;38340;52.964;6.086;2022-07-23T15:40:32;23.80;99.90
52415;DHT22;38340;52.964;6.086;2022-07-23T15:42:58;23.60;99.90
52415;DHT22;38340;52.964;6.086;2022-07-23T15:45:23;23.50;99.90
52415;DHT22;38340;52.964;6.086;2022-07-23T15:47:49;23.70;99.90
52415;DHT22;38340;52.964;6.086;2022-07-23T15:50:15;23.80;99.90
52415;DHT22;38340;52.964;6.086;2022-07-23T15:52:41;24.00;99.90
52415;DHT22;38340;52.964;6.086;2022-07-23T15:55:07;24.10;99.90
52415;DHT22;38340;52.964;6.086;2022-07-23T15:57:33;24.30;99.90
52415;DHT22;38340;52.964;6.086;2022-07-23T15:59:59;24.20;99.90
52415;DHT22;38340;52.964;6.086;2022-07-23T16:02:25;24.40;99.90
52415;DHT22;38340;52.964;6.086;2022-07-23T16:04:51;24.50;99.90
52415;DHT22;38340;52.964;6.086;2022-07-23T16:07:21;24.60;99.90
52415;DHT22;38340;52.964;6.086;2022-07-23T16:09:47;24.50;99.90